Maran Poseidon — SVAV3 — position and weather

sailwx.info

Track history (hours):
 
Tides and Currents Weather Stations Pressure Air Temp Water Temp Dewpoint Dewpoint Depression Visibility Wind Speed Wind Dir Waves Ship Positions

Maran Poseidon

Last reported at 2015-Feb-27 06:09 UTC. Time now 2015-Mar-01 19:20 UTC.
Position N 01°51' E 102°27'.

Length 274 m; draft 9.5 m.

Type: Tanker. MMSI: 240959000.

Date/timePositionNaut miles runAvg speedWind from/ knotsBaromVisibWave heightAir tempDewpointWater temp
2015-Feb-27 06:09N 01°51' E 102°27'914.7
2015-Feb-27 05:31N 01°47' E 102°35'8514.2
2015-Feb-26 23:29N 01°13' E 103°54'2 1.5
2015-Feb-26 22:08N 01°15' E 103°55'0 0.0
2015-Feb-26 21:29N 01°15' E 103°55'0 0.0
2015-Feb-26 20:23N 01°15' E 103°55'0 0.0
2015-Feb-26 19:23N 01°15' E 103°55'0 0.0
2015-Feb-26 18:32N 01°15' E 103°55'0 0.1
2015-Feb-26 17:23N 01°15' E 103°55'0 0.0
2015-Feb-26 16:17N 01°15' E 103°55'0 0.0
2015-Feb-26 15:29N 01°15' E 103°55'0 0.0
2015-Feb-26 14:17N 01°15' E 103°55'0 0.1
2015-Feb-26 13:23N 01°15' E 103°55'0 0.1
2015-Feb-26 12:17N 01°15' E 103°55'0 0.0
2015-Feb-26 11:11N 01°15' E 103°55'0 0.0
2015-Feb-26 10:29N 01°15' E 103°55'0 0.0
2015-Feb-26 08:23N 01°15' E 103°55'0 0.0
2015-Feb-26 07:17N 01°15' E 103°55'0 0.0
2015-Feb-26 06:17N 01°15' E 103°55'0 0.2
2015-Feb-26 05:05N 01°15' E 103°55'0 0.1
2015-Feb-26 04:29N 01°15' E 103°55'1 0.6
2015-Feb-26 02:33N 01°15' E 103°57'4 4.2
2015-Feb-26 01:33N 01°16' E 104°01'5 4.9
2015-Feb-26 00:33N 01°16' E 104°06'7 7.1
2015-Feb-25 23:33N 01°18' E 104°13'  
Track history (hours):
 
Tides and Currents Weather Stations Pressure Air Temp Water Temp Dewpoint Dewpoint Depression Visibility Wind Speed Wind Dir Waves Ship Positions

Maran Poseidon

Last reported at 2015-Feb-27 06:09 UTC. Time now 2015-Mar-01 19:20 UTC.
Position N 01°51' E 102°27'.

Length 274 m; draft 9.5 m.

Type: Tanker. MMSI: 240959000.

Date/timePositionNaut miles runAvg speedWind from/ knotsBaromVisibWave heightAir tempDewpointWater temp
2015-Feb-27 06:09N 01°51' E 102°27'914.7
2015-Feb-27 05:31N 01°47' E 102°35'8514.2
2015-Feb-26 23:29N 01°13' E 103°54'2 1.5
2015-Feb-26 22:08N 01°15' E 103°55'0 0.0
2015-Feb-26 21:29N 01°15' E 103°55'0 0.0
2015-Feb-26 20:23N 01°15' E 103°55'0 0.0
2015-Feb-26 19:23N 01°15' E 103°55'0 0.0
2015-Feb-26 18:32N 01°15' E 103°55'0 0.1
2015-Feb-26 17:23N 01°15' E 103°55'0 0.0
2015-Feb-26 16:17N 01°15' E 103°55'0 0.0
2015-Feb-26 15:29N 01°15' E 103°55'0 0.0
2015-Feb-26 14:17N 01°15' E 103°55'0 0.1
2015-Feb-26 13:23N 01°15' E 103°55'0 0.1
2015-Feb-26 12:17N 01°15' E 103°55'0 0.0
2015-Feb-26 11:11N 01°15' E 103°55'0 0.0
2015-Feb-26 10:29N 01°15' E 103°55'0 0.0
2015-Feb-26 08:23N 01°15' E 103°55'0 0.0
2015-Feb-26 07:17N 01°15' E 103°55'0 0.0
2015-Feb-26 06:17N 01°15' E 103°55'0 0.2
2015-Feb-26 05:05N 01°15' E 103°55'0 0.1
2015-Feb-26 04:29N 01°15' E 103°55'1 0.6
2015-Feb-26 02:33N 01°15' E 103°57'4 4.2
2015-Feb-26 01:33N 01°16' E 104°01'5 4.9
2015-Feb-26 00:33N 01°16' E 104°06'7 7.1
2015-Feb-25 23:33N 01°18' E 104°13'  

Dump ship's entire track history